Sunday, December 17, 2017, 4:36 PM EST
Back to Local

KCEF, Chicopee Falls / Westover Air Force Base

Location: Chicopee, MA, United States Lat: 42.2
Local Time: 4:36 PM EST (21:36 GMT) Lon: -72.533
Time Zone: US/Eastern Elev: 246 ft

Show me the last for .
Show Decoded

2017-12-17 15:56 METAR KCEF 172056Z 00000KT 10SM BKN100 OVC200 M03/M12 A3022 RMK AO2A SLP244
                 T10281120 55000 =
2017-12-17 14:56 METAR KCEF 171956Z 36003KT 10SM FEW100 BKN200 M02/M13 A3022 RMK AO2A SLP244
                 T10231135 =
2017-12-17 13:56 METAR KCEF 171856Z 32005KT 10SM FEW100 BKN200 M02/M14 A3021 RMK AO2A SLP240
                 T10211142 =
2017-12-17 12:56 METAR KCEF 171756Z 30006KT 10SM BKN200 M02/M14 A3022 RMK AO2A SLP244 T10181143
                 4/001 11018 21152 57023 =
2017-12-17 11:56 METAR KCEF 171656Z 02004KT 10SM FEW100 FEW200 M03/M14 A3025 RMK AO2A SLP254
                 T10291138 =
2017-12-17 10:56 METAR KCEF 171556Z 30004KT 10SM FEW100 FEW200 M04/M14 A3028 RMK AO2A SLP264
                 T10431137 =
2017-12-17 09:56 METAR KCEF 171456Z 00000KT 10SM FEW200 M07/M13 A3029 RMK AO2A SLP267 T10671130
                 52009 =
2017-12-17 08:56 METAR KCEF 171356Z 00000KT 10SM FEW200 M10/M12 A3027 RMK AO2A SLP261 T11021120 =
2017-12-17 07:56 METAR KCEF 171256Z 00000KT 10SM FEW200 M14/M16 A3027 RMK AO2A SLP261 T11441165 =
2017-12-17 06:56 METAR KCEF 171156Z COR 00000KT 10SM FEW050 M14/M16 A3026 RMK AO2A SLP258 4/001
                 T11391161 11099 21152 52012 COR 1200 =
2017-12-17 05:56 METAR KCEF 171056Z AUTO 05003KT 10SM CLR M14/M17 A3025 RMK AO2 SLP254 T11451168
                 =
2017-12-17 04:56 METAR KCEF 170956Z AUTO 00000KT 10SM CLR M13/M15 A3025 RMK AO2 SLP254 T11311151
                 =
2017-12-17 03:56 METAR KCEF 170856Z AUTO 00000KT 10SM CLR M13/M15 A3023 RMK AO2 SLP247 T11321152
                 52016 =
2017-12-17 02:56 METAR KCEF 170756Z AUTO 00000KT 10SM CLR M13/M15 A3022 RMK AO2 SLP244 T11281148
                 =
2017-12-17 01:56 METAR KCEF 170656Z AUTO 00000KT 10SM CLR M11/M13 A3020 RMK AO2 SLP237 T11141133
                 =
2017-12-17 00:56 METAR KCEF 170556Z AUTO 06003KT 10SM CLR M10/M13 A3018 RMK AO2 SLP230 T10961131
                 11032 21096 52009 =
2017-12-16 23:56 METAR KCEF 170456Z AUTO 28008KT 10SM CLR M07/M12 A3016 RMK AO2 SLP223 T10711120
                 410041120 =
2017-12-16 22:56 METAR KCEF 170356Z AUTO 30010KT 10SM CLR M05/M12 A3016 RMK AO2 SLP223 T10541118
                 =
2017-12-16 21:56 METAR KCEF 170256Z 00000KT 10SM CLR M05/M11 A3015 RMK AO2A SLP220 T10471113
                 52029 =
2017-12-16 20:56 METAR KCEF 170156Z 31008KT 10SM FEW045 M05/M12 A3013 RMK AO2A SLP213 T10471117 =
2017-12-16 19:56 METAR KCEF 170056Z 31010KT 10SM FEW040 FEW050 M03/M10 A3010 RMK AO2A SLP203
                 T10341105 =
2017-12-16 18:56 METAR KCEF 162356Z 31004KT 10SM FEW040 SCT080 M04/M09 A3007 RMK AO2A SLP193
                 60000 4/001 T10391088 11004 21039 52036 =
2017-12-16 17:56 METAR KCEF 162256Z 28009KT 10SM OVC065 M02/M07 A3003 RMK AO2A SLP179 T10231074 =
2017-12-16 16:56 METAR KCEF 162156Z 29007KT 10SM FEW060 BKN080 BKN090 M02/M07 A3000 RMK AO2A
                 SLP169 P0000 T10221068 =

Support USWX by starting your Amazon purchase here.